createdAt,value
2019-01-31T20:44:13.331Z,2.78
2019-01-31T20:46:48.963Z,2.78
2019-01-31T20:49:22.530Z,2.71
2019-01-31T20:51:58.382Z,2.67
2019-01-31T20:54:33.520Z,2.63
2019-01-31T20:57:06.814Z,2.59
2019-01-31T20:59:39.363Z,2.58
2019-01-31T21:02:12.135Z,2.56
2019-01-31T21:04:46.942Z,2.46
2019-01-31T21:07:22.278Z,2.39
2019-01-31T21:09:59.671Z,2.37
2019-01-31T21:12:35.316Z,2.36
2019-01-31T21:15:12.937Z,2.44
2019-01-31T21:17:44.666Z,2.47
2019-01-31T21:20:18.578Z,2.38
2019-01-31T21:22:52.360Z,2.30
2019-01-31T21:25:25.684Z,2.24
2019-01-31T21:27:57.138Z,2.26
2019-01-31T21:30:32.193Z,2.34
2019-01-31T21:33:06.355Z,2.29
2019-01-31T21:35:40.515Z,2.26
2019-01-31T21:38:14.853Z,2.32
2019-01-31T21:40:49.145Z,2.33
2019-01-31T21:43:23.171Z,2.22
2019-01-31T21:45:59.313Z,2.24
2019-01-31T21:48:44.758Z,2.27
2019-01-31T21:51:30.609Z,2.28
2019-01-31T21:54:16.820Z,2.25
2019-01-31T21:57:02.947Z,2.29
2019-01-31T21:59:46.960Z,2.30
2019-01-31T22:02:20.836Z,2.35
2019-01-31T22:05:07.080Z,2.42
2019-01-31T22:07:41.951Z,2.50
2019-01-31T22:10:18.469Z,2.47
2019-01-31T22:12:55.214Z,2.51
2019-01-31T22:15:33.727Z,2.51
2019-01-31T22:18:08.508Z,2.51
2019-01-31T22:20:42.941Z,2.57
2019-01-31T22:23:17.116Z,2.56
2019-01-31T22:25:51.535Z,2.60
2019-01-31T22:28:25.340Z,2.60
2019-01-31T22:30:59.762Z,2.59
2019-01-31T22:33:33.937Z,2.46
2019-01-31T22:36:08.009Z,2.54
2019-01-31T22:38:45.406Z,2.53
2019-01-31T22:41:18.459Z,2.55
2019-01-31T22:43:52.919Z,2.58
2019-01-31T22:46:27.066Z,2.48
2019-01-31T22:49:13.371Z,2.53
2019-01-31T22:51:58.114Z,2.55
2019-01-31T22:54:36.797Z,2.57
2019-01-31T22:57:10.783Z,2.60
2019-01-31T22:59:45.135Z,2.55
2019-01-31T23:02:19.356Z,2.58
2019-01-31T23:04:53.915Z,2.52
2019-01-31T23:07:28.291Z,2.52
2019-01-31T23:10:02.446Z,2.55
2019-01-31T23:12:50.048Z,2.56
2019-01-31T23:15:36.481Z,2.54
2019-01-31T23:18:20.038Z,2.47
2019-01-31T23:20:55.291Z,2.50
2019-01-31T23:23:29.069Z,2.44
2019-01-31T23:26:10.745Z,2.44
2019-01-31T23:28:44.813Z,2.42
2019-01-31T23:31:19.225Z,2.31
2019-01-31T23:33:53.533Z,2.29
2019-01-31T23:36:30.685Z,2.25
2019-01-31T23:39:06.472Z,2.35
2019-01-31T23:41:42.215Z,2.32
2019-01-31T23:44:17.363Z,2.29
2019-01-31T23:46:50.998Z,2.26
2019-01-31T23:49:25.526Z,2.16
2019-01-31T23:52:11.505Z,2.10
2019-01-31T23:54:55.149Z,2.17
2019-01-31T23:57:29.284Z,2.11
